Time;durP1;ratioP1;P1;durP2;ratioP2;P2;SDS_P1;SDS_P2;PMS_P1;PMS_P2;Temp;Humidity;BMP_temperature;BMP_pressure;BME280_temperature;BME280_humidity;BME280_pressure;Samples;Min_cycle;Max_cycle;Signal;HPM_P1;HPM_P2
2023/01/18 00:01:39;;;;;;;9.68;4.05;;;2.90;99.90;;;;;;5096501;28;20043;-74
2023/01/18 00:04:05;;;;;;;5.80;3.50;;;2.90;99.90;;;;;;5112395;28;20079;-75
2023/01/18 00:06:31;;;;;;;5.40;3.47;;;2.90;99.90;;;;;;5096496;28;20067;-75
2023/01/18 00:08:56;;;;;;;8.13;3.38;;;2.80;99.90;;;;;;5096826;28;20032;-74
2023/01/18 00:11:22;;;;;;;5.55;3.25;;;2.70;99.90;;;;;;5098182;28;20046;-75
2023/01/18 00:13:48;;;;;;;7.07;3.50;;;2.60;99.90;;;;;;5100794;28;20067;-74
2023/01/18 00:16:16;;;;;;;6.82;3.47;;;2.60;99.90;;;;;;5100127;28;20039;-74
2023/01/18 00:18:42;;;;;;;7.80;3.90;;;2.70;99.90;;;;;;5100699;28;20040;-74
2023/01/18 00:21:10;;;;;;;6.28;3.75;;;2.70;99.90;;;;;;5100351;28;20433;-74
2023/01/18 00:23:37;;;;;;;7.35;3.83;;;2.70;99.90;;;;;;5100155;28;20333;-74
2023/01/18 00:26:05;;;;;;;8.05;3.40;;;2.60;99.90;;;;;;5100309;28;20032;-74
2023/01/18 00:28:32;;;;;;;6.22;3.38;;;2.60;99.90;;;;;;5100459;28;20032;-74
2023/01/18 00:30:57;;;;;;;9.40;3.97;;;2.60;99.90;;;;;;5100210;28;20035;-74
2023/01/18 00:33:23;;;;;;;6.75;3.90;;;2.60;99.90;;;;;;5100624;28;20035;-74
2023/01/18 00:36:00;;;;;;;9.35;3.80;;;2.50;99.90;;;;;;5100427;28;20410;-74
2023/01/18 00:38:26;;;;;;;7.15;4.03;;;2.40;99.90;;;;;;5100346;28;20028;-74
2023/01/18 00:40:52;;;;;;;5.05;3.58;;;2.40;99.90;;;;;;5100257;28;20028;-74
2023/01/18 00:46:02;;;;;;;9.00;4.85;;;2.50;99.90;;;;;;5099926;28;20070;-75
2023/01/18 00:48:27;;;;;;;7.55;4.93;;;2.50;99.90;;;;;;5099940;28;20064;-75
2023/01/18 00:50:53;;;;;;;6.70;4.00;;;2.60;99.90;;;;;;5100134;28;20097;-74
2023/01/18 00:53:19;;;;;;;7.72;4.60;;;2.60;99.90;;;;;;5099055;28;20075;-74
2023/01/18 00:55:45;;;;;;;6.15;4.55;;;2.70;99.90;;;;;;5099784;28;20035;-74
2023/01/18 00:58:11;;;;;;;7.35;5.20;;;2.50;99.90;;;;;;5100166;28;20127;-74
2023/01/18 01:00:37;;;;;;;8.15;5.03;;;2.50;99.90;;;;;;5099644;28;20119;-74
2023/01/18 01:03:03;;;;;;;7.57;4.68;;;2.50;99.90;;;;;;5099820;28;20036;-74
2023/01/18 01:08:18;;;;;;;10.60;5.95;;;2.60;99.90;;;;;;5099824;28;20047;-75
2023/01/18 01:10:46;;;;;;;9.60;5.30;;;2.50;99.90;;;;;;5099771;28;20119;-74
2023/01/18 01:27:02;;;;;;;11.25;4.70;;;2.70;99.90;;;;;;5099460;28;20059;-74
2023/01/18 01:29:28;;;;;;;7.53;4.60;;;2.60;99.90;;;;;;5099377;28;20040;-74
2023/01/18 01:31:53;;;;;;;8.45;5.25;;;2.60;99.90;;;;;;5099050;28;20064;-74
2023/01/18 01:34:19;;;;;;;7.63;4.55;;;2.60;99.90;;;;;;5099229;28;20032;-74
2023/01/18 01:36:45;;;;;;;5.78;4.28;;;2.60;99.90;;;;;;5099011;28;20057;-74
2023/01/18 01:39:10;;;;;;;6.75;4.85;;;2.60;99.90;;;;;;5099418;28;20064;-74
2023/01/18 01:41:37;;;;;;;9.05;4.88;;;2.60;99.90;;;;;;5098851;28;20397;-74
2023/01/18 01:44:20;;;;;;;6.28;4.32;;;2.50;99.90;;;;;;5099036;28;20111;-74
2023/01/18 01:46:49;;;;;;;6.68;4.30;;;2.50;99.90;;;;;;5098726;28;20040;-74
2023/01/18 01:49:22;;;;;;;7.07;4.07;;;2.50;99.90;;;;;;5098755;28;20067;-74
2023/01/18 01:51:59;;;;;;;7.57;3.83;;;2.40;99.90;;;;;;5097631;28;20052;-74
2023/01/18 01:54:33;;;;;;;6.50;4.35;;;2.40;99.90;;;;;;5098955;28;20039;-74
2023/01/18 01:57:18;;;;;;;5.13;4.20;;;2.30;99.90;;;;;;5098878;28;20061;-74
2023/01/18 02:00:09;;;;;;;7.63;4.72;;;2.20;99.90;;;;;;5098775;28;20124;-74
2023/01/18 02:02:37;;;;;;;7.45;4.30;;;2.20;99.90;;;;;;5097857;28;20051;-74
2023/01/18 02:05:06;;;;;;;10.38;5.55;;;2.20;99.90;;;;;;5114623;28;20571;-74
2023/01/18 02:07:33;;;;;;;8.82;5.30;;;2.20;99.90;;;;;;5114243;28;20047;-74
2023/01/18 02:10:00;;;;;;;8.63;5.28;;;2.20;99.90;;;;;;5098613;28;20047;-76
2023/01/18 02:12:28;;;;;;;7.20;5.03;;;2.30;99.90;;;;;;5098214;28;20044;-74
2023/01/18 02:14:55;;;;;;;11.02;5.25;;;2.30;99.90;;;;;;5098172;28;20039;-74
2023/01/18 02:17:24;;;;;;;10.10;5.65;;;2.30;99.90;;;;;;5098406;28;20075;-74
2023/01/18 02:20:18;;;;;;;10.25;6.00;;;2.30;99.90;;;;;;5098391;28;20043;-74
2023/01/18 02:22:46;;;;;;;12.15;5.45;;;2.50;99.90;;;;;;5096769;28;20051;-75
2023/01/18 02:25:27;;;;;;;8.57;5.18;;;2.50;99.90;;;;;;5098313;28;20098;-74
2023/01/18 02:28:16;;;;;;;7.88;5.40;;;2.50;99.90;;;;;;5097214;28;20382;-74
2023/01/18 02:31:07;;;;;;;9.20;5.93;;;2.50;99.90;;;;;;5097873;28;20409;-74
2023/01/18 02:34:28;;;;;;;10.20;5.35;;;2.40;99.90;;;;;;5097671;28;20146;-74
2023/01/18 02:37:05;;;;;;;6.95;5.30;;;2.40;99.90;;;;;;5088902;28;20531;-74
2023/01/18 02:40:01;;;;;;;9.48;5.00;;;2.40;99.90;;;;;;5098023;28;20040;-74
2023/01/18 02:48:40;;;;;;;11.50;6.20;;;2.10;99.90;;;;;;5097905;28;20130;-74
2023/01/18 02:51:07;;;;;;;9.05;5.80;;;2.20;99.90;;;;;;5097848;28;20301;-74
2023/01/18 02:53:37;;;;;;;8.23;5.80;;;2.20;99.90;;;;;;5113462;28;20040;-74
2023/01/18 02:56:11;;;;;;;10.77;6.18;;;2.20;99.90;;;;;;5097464;28;20032;-74
2023/01/18 02:58:46;;;;;;;9.50;5.60;;;2.20;99.90;;;;;;5113379;28;20036;-74
2023/01/18 03:01:37;;;;;;;12.52;5.90;;;2.20;99.90;;;;;;5097670;28;20356;-74
2023/01/18 03:04:09;;;;;;;12.82;6.55;;;2.00;99.90;;;;;;5113262;28;20313;-74
2023/01/18 03:06:37;;;;;;;9.50;6.53;;;2.10;99.90;;;;;;5097731;28;20032;-74
2023/01/18 03:09:03;;;;;;;9.65;6.47;;;2.20;99.90;;;;;;5097488;28;20027;-74
2023/01/18 03:11:38;;;;;;;10.35;6.68;;;2.10;99.90;;;;;;5096498;28;20032;-74
2023/01/18 03:14:45;;;;;;;10.63;6.83;;;2.20;99.90;;;;;;5096419;28;20332;-74
2023/01/18 03:17:21;;;;;;;10.30;6.93;;;2.30;99.90;;;;;;5113642;28;20152;-74
2023/01/18 03:20:06;;;;;;;;;;;2.20;99.90;;;;;;5114188;28;20039;-74
2023/01/18 03:25:31;;;;;;;8.48;6.32;;;2.10;99.90;;;;;;5097279;28;20047;-74
2023/01/18 03:33:42;;;;;;;12.85;7.75;;;2.10;99.90;;;;;;5097236;28;20120;-74
2023/01/18 03:36:18;;;;;;;15.25;8.43;;;2.10;99.90;;;;;;5096873;28;20031;-74
2023/01/18 03:38:49;;;;;;;11.88;7.45;;;2.10;99.90;;;;;;5097099;28;20429;-74
2023/01/18 03:41:16;;;;;;;11.02;7.03;;;2.10;99.90;;;;;;5097043;28;20090;-74
2023/01/18 03:43:43;;;;;;;8.65;7.00;;;2.10;99.90;;;;;;5112359;28;20115;-74
2023/01/18 03:46:10;;;;;;;13.75;8.25;;;2.10;99.90;;;;;;5095896;28;20123;-74
2023/01/18 03:48:36;;;;;;;10.20;6.50;;;2.10;99.90;;;;;;5096750;28;20036;-74
2023/01/18 03:51:18;;;;;;;11.68;7.32;;;2.10;99.90;;;;;;5095457;28;20047;-74
2023/01/18 03:53:59;;;;;;;12.05;7.72;;;2.10;99.90;;;;;;5096760;28;20048;-74
2023/01/18 03:56:37;;;;;;;14.50;6.82;;;2.10;99.90;;;;;;5096324;28;20048;-74
2023/01/18 03:59:05;;;;;;;10.75;7.13;;;2.10;99.90;;;;;;5096877;28;20044;-74
2023/01/18 04:01:31;;;;;;;11.10;7.30;;;2.10;99.90;;;;;;5112436;28;20079;-74
2023/01/18 04:03:56;;;;;;;16.27;8.38;;;2.20;99.90;;;;;;5096402;28;20087;-74
2023/01/18 04:06:24;;;;;;;12.27;7.55;;;2.10;99.90;;;;;;5096736;28;20033;-74
2023/01/18 04:08:50;;;;;;;13.85;7.43;;;2.20;99.90;;;;;;5096445;28;20048;-74
2023/01/18 04:11:16;;;;;;;10.68;7.15;;;2.10;99.90;;;;;;5096423;28;20040;-74
2023/01/18 04:13:42;;;;;;;12.23;7.88;;;2.10;99.90;;;;;;5096698;28;20097;-74
2023/01/18 04:16:07;;;;;;;12.98;7.13;;;2.10;99.90;;;;;;5096368;28;20036;-74
2023/01/18 04:18:33;;;;;;;10.23;7.05;;;2.10;99.90;;;;;;5096324;28;20044;-74
2023/01/18 04:20:59;;;;;;;12.13;7.25;;;2.10;99.90;;;;;;5112579;28;20047;-74
2023/01/18 04:23:25;;;;;;;13.05;7.53;;;2.10;99.90;;;;;;5096055;28;20062;-74
2023/01/18 04:25:51;;;;;;;11.85;6.90;;;2.00;99.90;;;;;;5095577;28;20048;-74
2023/01/18 04:28:24;;;;;;;13.90;8.07;;;2.10;99.90;;;;;;5096560;28;20032;-74
2023/01/18 04:30:51;;;;;;;12.02;7.28;;;2.10;99.90;;;;;;5096608;28;20071;-74
2023/01/18 04:33:18;;;;;;;10.98;7.65;;;2.10;99.90;;;;;;5095349;28;20359;-74
2023/01/18 04:35:43;;;;;;;15.57;7.50;;;2.10;99.90;;;;;;5096469;28;20405;-75
2023/01/18 04:38:09;;;;;;;13.43;8.05;;;2.00;99.90;;;;;;5112388;28;20106;-74
2023/01/18 04:40:35;;;;;;;13.70;8.48;;;2.00;99.90;;;;;;5095798;28;20036;-74
2023/01/18 04:43:00;;;;;;;12.88;8.18;;;2.00;99.90;;;;;;5096336;28;20040;-74
2023/01/18 04:45:26;;;;;;;11.85;7.55;;;2.10;99.90;;;;;;5111682;28;20043;-74
2023/01/18 04:47:51;;;;;;;11.40;7.25;;;2.00;99.90;;;;;;5096393;28;20043;-74
2023/01/18 04:50:17;;;;;;;13.18;7.63;;;2.00;99.90;;;;;;5111961;28;20037;-74
2023/01/18 04:52:43;;;;;;;14.65;7.05;;;2.00;99.90;;;;;;5096253;28;20130;-74
2023/01/18 04:55:10;;;;;;;14.93;7.57;;;2.10;99.90;;;;;;5096075;28;20036;-73
2023/01/18 04:57:36;;;;;;;10.70;7.03;;;2.10;99.90;;;;;;5078832;28;20321;-74
2023/01/18 05:00:02;;;;;;;11.70;7.75;;;2.10;99.90;;;;;;5099589;28;20040;-74
2023/01/18 05:02:27;;;;;;;13.38;7.57;;;2.00;99.90;;;;;;5099447;28;20479;-74
2023/01/18 05:04:53;;;;;;;12.95;8.10;;;1.90;99.90;;;;;;5115820;28;20036;-74
2023/01/18 05:07:19;;;;;;;16.35;7.38;;;1.80;99.90;;;;;;5104521;28;20529;-76
2023/01/18 05:09:45;;;;;;;10.15;7.65;;;1.80;99.90;;;;;;5116749;28;20041;-75
2023/01/18 05:12:10;;;;;;;12.18;7.75;;;1.80;99.90;;;;;;5119988;28;20071;-74
2023/01/18 05:14:36;;;;;;;14.05;8.10;;;1.90;99.90;;;;;;5118659;28;20436;-74
2023/01/18 05:17:02;;;;;;;22.00;8.38;;;1.80;99.90;;;;;;5119306;28;20040;-76
2023/01/18 05:19:29;;;;;;;14.38;8.35;;;1.90;99.90;;;;;;5119964;27;20071;-74
2023/01/18 05:21:55;;;;;;;12.35;7.97;;;1.90;99.90;;;;;;5118556;28;20044;-74
2023/01/18 05:24:21;;;;;;;12.75;7.78;;;1.80;99.90;;;;;;5119162;28;20374;-74
2023/01/18 05:26:47;;;;;;;13.95;8.30;;;1.70;99.90;;;;;;5119800;28;20044;-74
2023/01/18 05:29:12;;;;;;;12.73;8.00;;;1.60;99.90;;;;;;5119751;28;20070;-74
2023/01/18 05:31:38;;;;;;;14.82;9.30;;;1.70;99.90;;;;;;5118396;28;20036;-74
2023/01/18 05:34:03;;;;;;;13.02;8.10;;;1.60;99.90;;;;;;5119626;28;20093;-74
2023/01/18 05:36:29;;;;;;;12.23;8.15;;;1.60;99.90;;;;;;5119566;28;20051;-74
2023/01/18 05:38:55;;;;;;;15.85;9.40;;;1.60;99.90;;;;;;5118204;28;20043;-74
2023/01/18 05:41:21;;;;;;;14.25;8.38;;;1.80;99.90;;;;;;5119508;28;20036;-74
2023/01/18 05:43:46;;;;;;;16.65;8.23;;;1.60;99.90;;;;;;5119398;28;20096;-74
2023/01/18 05:46:12;;;;;;;15.45;8.10;;;1.60;99.90;;;;;;5119046;28;20433;-74
2023/01/18 05:48:38;;;;;;;17.13;8.70;;;1.70;99.90;;;;;;5119024;28;20096;-74
2023/01/18 05:51:08;;;;;;;15.02;8.27;;;1.70;99.90;;;;;;5118273;28;20040;-74
2023/01/18 05:53:34;;;;;;;15.57;8.10;;;1.70;99.90;;;;;;5119007;28;20086;-74
2023/01/18 05:56:04;;;;;;;14.73;8.02;;;1.70;99.90;;;;;;5119236;28;20047;-74
2023/01/18 05:58:30;;;;;;;13.05;8.13;;;1.80;99.90;;;;;;5119128;28;20052;-74
2023/01/18 06:00:57;;;;;;;15.95;8.35;;;1.90;99.90;;;;;;5118859;28;20039;-74
2023/01/18 06:03:24;;;;;;;15.98;8.40;;;1.90;99.90;;;;;;5117812;28;20047;-74
2023/01/18 06:05:52;;;;;;;11.68;8.02;;;1.90;99.90;;;;;;5118982;28;20073;-74
2023/01/18 06:08:19;;;;;;;13.90;8.07;;;1.80;99.90;;;;;;5118257;28;20160;-75
2023/01/18 06:10:56;;;;;;;15.00;8.20;;;1.80;99.90;;;;;;5118870;28;20036;-74
2023/01/18 06:13:23;;;;;;;14.15;8.77;;;1.90;99.90;;;;;;5118905;28;20035;-74
2023/01/18 06:15:48;;;;;;;18.08;9.43;;;1.90;99.90;;;;;;5117184;28;20043;-74
2023/01/18 06:18:14;;;;;;;13.77;8.52;;;1.90;99.90;;;;;;5118430;28;20054;-74
2023/01/18 06:20:40;;;;;;;14.25;8.00;;;1.80;99.90;;;;;;5118722;28;20172;-74
2023/01/18 06:23:05;;;;;;;16.90;9.10;;;1.60;99.90;;;;;;5117160;28;20040;-74
2023/01/18 06:25:31;;;;;;;14.85;8.80;;;1.60;99.90;;;;;;5118366;28;20071;-74
2023/01/18 06:27:58;;;;;;;16.92;8.88;;;1.60;99.90;;;;;;5117519;28;20047;-74
2023/01/18 06:30:24;;;;;;;12.73;8.35;;;1.50;99.90;;;;;;5118489;28;20044;-74
2023/01/18 06:32:50;;;;;;;15.13;8.95;;;1.40;99.90;;;;;;5118515;28;20044;-74
2023/01/18 06:35:16;;;;;;;16.70;8.60;;;1.20;99.90;;;;;;5118446;27;20039;-74
2023/01/18 06:37:44;;;;;;;17.40;9.23;;;1.30;99.90;;;;;;5118382;28;20039;-74
2023/01/18 06:40:10;;;;;;;17.63;9.10;;;1.30;99.90;;;;;;5118048;28;20424;-74
2023/01/18 06:42:36;;;;;;;15.75;9.55;;;1.40;99.90;;;;;;5118238;28;20324;-74
2023/01/18 06:45:01;;;;;;;13.32;9.02;;;1.50;99.90;;;;;;5117931;28;20091;-74
2023/01/18 06:47:27;;;;;;;19.02;8.60;;;1.40;99.90;;;;;;5118221;28;20306;-74
2023/01/18 06:49:56;;;;;;;14.98;8.40;;;1.10;99.90;;;;;;5118146;28;20046;-74
2023/01/18 06:52:22;;;;;;;13.45;8.35;;;1.20;99.90;;;;;;5134138;27;20032;-74
2023/01/18 06:54:47;;;;;;;16.83;8.63;;;1.30;99.90;;;;;;5118030;28;20409;-75
2023/01/18 06:57:13;;;;;;;18.70;9.40;;;1.40;99.90;;;;;;5118021;28;20035;-74
2023/01/18 06:59:39;;;;;;;13.23;8.40;;;1.50;99.90;;;;;;5116927;28;20051;-75
2023/01/18 07:02:05;;;;;;;14.30;8.43;;;1.50;99.90;;;;;;5117911;28;20046;-75
2023/01/18 07:04:31;;;;;;;15.70;8.75;;;1.50;99.90;;;;;;5133645;27;20079;-75
2023/01/18 07:06:57;;;;;;;14.30;8.77;;;1.60;99.90;;;;;;5116877;28;20124;-75
2023/01/18 07:09:23;;;;;;;11.52;8.15;;;1.70;99.90;;;;;;5117834;27;20043;-75
2023/01/18 07:11:49;;;;;;;15.93;8.65;;;1.50;99.90;;;;;;5117775;28;20416;-75
2023/01/18 07:14:15;;;;;;;13.73;8.52;;;1.70;99.90;;;;;;5117557;28;20336;-75
2023/01/18 07:16:40;;;;;;;18.02;9.35;;;1.60;99.90;;;;;;5117342;28;20116;-75
2023/01/18 07:19:06;;;;;;;14.88;9.48;;;1.70;99.90;;;;;;5116636;28;20047;-74
2023/01/18 07:21:32;;;;;;;17.10;8.35;;;1.70;99.90;;;;;;5116590;28;20067;-75
2023/01/18 07:23:58;;;;;;;11.68;8.18;;;1.70;99.90;;;;;;5117344;28;20493;-75
2023/01/18 07:26:25;;;;;;;14.13;8.32;;;1.60;99.90;;;;;;5117528;28;20031;-74
2023/01/18 07:28:53;;;;;;;13.00;8.52;;;1.60;99.90;;;;;;5116163;28;20047;-75
2023/01/18 07:31:19;;;;;;;14.23;7.93;;;1.50;99.90;;;;;;5117249;28;20044;-75
2023/01/18 07:33:45;;;;;;;14.65;8.48;;;1.50;99.90;;;;;;5116156;28;20318;-75
2023/01/18 07:36:11;;;;;;;15.25;9.15;;;1.60;99.90;;;;;;5116071;28;20050;-75
2023/01/18 07:38:38;;;;;;;14.65;8.63;;;1.70;99.90;;;;;;5117381;28;20055;-75
2023/01/18 07:41:07;;;;;;;16.98;8.38;;;1.50;99.90;;;;;;5117104;28;20043;-75
2023/01/18 07:43:33;;;;;;;17.20;8.95;;;1.60;99.90;;;;;;5115766;28;20048;-75
2023/01/18 07:46:00;;;;;;;17.17;9.30;;;1.50;99.90;;;;;;5116896;28;20078;-75
2023/01/18 07:48:27;;;;;;;18.02;8.93;;;1.60;99.90;;;;;;5117266;28;20148;-75
2023/01/18 07:50:54;;;;;;;15.50;8.07;;;1.70;99.90;;;;;;5117287;28;20366;-75
2023/01/18 07:53:20;;;;;;;21.58;8.82;;;1.70;99.90;;;;;;5115873;28;20321;-75
2023/01/18 07:55:46;;;;;;;17.38;8.07;;;1.80;99.90;;;;;;5117218;28;20110;-74
2023/01/18 07:58:12;;;;;;;19.95;9.38;;;1.80;99.90;;;;;;5117157;28;20484;-75
2023/01/18 08:00:37;;;;;;;17.38;9.00;;;1.90;99.90;;;;;;5116836;28;20039;-75
2023/01/18 08:03:03;;;;;;;17.50;8.38;;;1.80;99.90;;;;;;5116774;28;20079;-75
2023/01/18 08:05:31;;;;;;;15.48;8.40;;;1.80;99.90;;;;;;5117150;28;20036;-75
2023/01/18 08:07:56;;;;;;;16.25;8.30;;;1.80;99.90;;;;;;5115772;28;20114;-75
2023/01/18 08:10:25;;;;;;;14.48;7.97;;;1.90;99.90;;;;;;5115965;28;20110;-70
2023/01/18 08:12:51;;;;;;;15.82;8.77;;;1.80;99.90;;;;;;5116757;28;20039;-70
2023/01/18 08:15:17;;;;;;;16.95;8.52;;;1.80;99.90;;;;;;5116622;28;20054;-75
2023/01/18 08:17:42;;;;;;;14.57;7.68;;;1.90;99.90;;;;;;5116633;28;20424;-72
2023/01/18 08:20:09;;;;;;;15.10;8.07;;;1.90;99.90;;;;;;5116304;28;20044;-71
2023/01/18 08:22:35;;;;;;;13.55;7.22;;;1.80;99.90;;;;;;5116823;28;20039;-70
2023/01/18 08:25:01;;;;;;;15.55;8.48;;;1.70;99.90;;;;;;5116498;28;20056;-70
2023/01/18 08:27:27;;;;;;;14.25;7.30;;;1.70;99.90;;;;;;5114015;28;20428;-68
2023/01/18 08:29:53;;;;;;;17.40;8.18;;;1.70;99.90;;;;;;5116502;28;20046;-69
2023/01/18 08:32:19;;;;;;;15.63;7.95;;;1.80;99.90;;;;;;5116463;28;20050;-68
2023/01/18 08:34:44;;;;;;;14.05;7.82;;;1.80;99.90;;;;;;5118914;28;20033;-68
2023/01/18 08:37:10;;;;;;;15.48;7.50;;;1.90;99.90;;;;;;5120649;28;20082;-70
2023/01/18 08:39:37;;;;;;;16.45;6.82;;;1.90;99.90;;;;;;5120395;28;20321;-70
2023/01/18 08:42:03;;;;;;;10.57;7.00;;;1.90;99.90;;;;;;5120688;28;20325;-70
2023/01/18 08:44:29;;;;;;;13.57;6.70;;;1.80;99.90;;;;;;5137864;27;20122;-70
2023/01/18 08:46:55;;;;;;;14.75;7.10;;;1.80;99.90;;;;;;5139387;27;20172;-70
2023/01/18 08:49:20;;;;;;;15.38;7.03;;;1.90;99.90;;;;;;5141129;27;20039;-70
2023/01/18 08:51:46;;;;;;;9.82;6.15;;;2.00;99.90;;;;;;5139374;27;20039;-70
2023/01/18 08:54:12;;;;;;;11.55;6.45;;;2.00;99.90;;;;;;5121239;27;20036;-69
2023/01/18 08:56:38;;;;;;;11.07;5.55;;;1.80;99.90;;;;;;5120187;28;20122;-69
2023/01/18 08:59:07;;;;;;;20.17;7.50;;;1.80;99.90;;;;;;5120366;28;20329;-68
2023/01/18 09:01:32;;;;;;;11.80;6.63;;;1.80;99.90;;;;;;5120811;27;20078;-72
2023/01/18 09:03:58;;;;;;;11.27;6.38;;;1.90;99.90;;;;;;5119229;28;20071;-70
2023/01/18 09:06:30;;;;;;;12.77;6.55;;;1.90;99.90;;;;;;5120150;28;20035;-70
2023/01/18 09:08:56;;;;;;;14.48;7.22;;;2.10;99.90;;;;;;5119942;28;20109;-70
2023/01/18 09:11:22;;;;;;;10.30;6.22;;;2.10;99.90;;;;;;5119096;28;20090;-70
2023/01/18 09:13:52;;;;;;;13.43;7.53;;;2.20;99.90;;;;;;5119757;28;20074;-71
2023/01/18 09:16:18;;;;;;;15.60;7.50;;;2.40;99.90;;;;;;5118594;28;20062;-69
2023/01/18 09:18:49;;;;;;;15.38;7.85;;;2.40;99.90;;;;;;5120228;27;20044;-70
2023/01/18 09:21:19;;;;;;;13.65;6.70;;;2.50;99.90;;;;;;5119929;28;20036;-70
2023/01/18 09:23:47;;;;;;;14.15;7.20;;;2.50;99.90;;;;;;5119457;28;20051;-70
2023/01/18 09:26:15;;;;;;;11.93;6.30;;;2.50;99.90;;;;;;5119517;28;20122;-71
2023/01/18 09:28:49;;;;;;;10.60;6.43;;;2.40;99.90;;;;;;5118397;28;20448;-70
2023/01/18 09:31:15;;;;;;;10.80;5.95;;;2.40;99.90;;;;;;5119783;28;20046;-70
2023/01/18 09:33:41;;;;;;;12.38;6.28;;;2.40;99.90;;;;;;5121913;27;20043;-73
2023/01/18 09:36:09;;;;;;;18.00;7.53;;;2.50;99.90;;;;;;5132019;27;20039;-72
2023/01/18 09:38:36;;;;;;;14.10;6.93;;;2.70;99.90;;;;;;5116368;28;20044;-71
2023/01/18 09:41:07;;;;;;;16.13;7.88;;;2.80;99.90;;;;;;5106091;28;20055;-72
2023/01/18 09:43:42;;;;;;;12.55;6.38;;;2.80;99.90;;;;;;5118336;28;20138;-71
2023/01/18 09:46:18;;;;;;;13.55;7.32;;;2.70;99.90;;;;;;5117725;28;20239;-71
2023/01/18 09:48:48;;;;;;;13.20;6.93;;;2.60;99.90;;;;;;5119361;28;20036;-70
2023/01/18 09:51:24;;;;;;;13.35;6.22;;;2.70;99.90;;;;;;5118125;28;20432;-72
2023/01/18 09:53:50;;;;;;;;;;;2.60;99.90;;;;;;5118412;28;20035;-70
2023/01/18 09:56:23;;;;;;;15.97;6.17;;;2.60;99.90;;;;;;5117914;28;20241;-69
2023/01/18 09:59:36;;;;;;;12.98;6.63;;;2.60;99.90;;;;;;5119233;28;20108;-70
2023/01/18 10:02:29;;;;;;;11.60;6.53;;;2.50;99.90;;;;;;5076259;28;20047;-69
2023/01/18 10:05:05;;;;;;;12.25;6.80;;;2.60;99.90;;;;;;5103902;28;20448;-70
2023/01/18 10:07:34;;;;;;;;;;;2.70;99.90;;;;;;5116836;28;21311;-70
2023/01/18 10:10:00;;;;;;;14.18;6.40;;;2.70;99.90;;;;;;5116923;28;19969;-69
2023/01/18 10:12:48;;;;;;;13.15;6.55;;;2.80;99.90;;;;;;5098520;28;20371;-69
2023/01/18 10:15:25;;;;;;;14.38;6.97;;;2.80;99.90;;;;;;5104374;28;20079;-69
2023/01/18 10:17:55;;;;;;;13.00;7.28;;;2.70;99.90;;;;;;5097741;28;20118;-70
2023/01/18 10:20:34;;;;;;;10.90;6.82;;;2.80;99.90;;;;;;5098358;28;20145;-69
2023/01/18 10:23:02;;;;;;;13.98;6.70;;;3.00;99.90;;;;;;5114102;28;20052;-69
2023/01/18 10:25:40;;;;;;;12.07;6.53;;;3.00;99.90;;;;;;5098309;28;20112;-71
2023/01/18 10:28:31;;;;;;;11.40;6.60;;;3.30;99.90;;;;;;5097147;28;20044;-69
2023/01/18 10:31:03;;;;;;;10.95;6.03;;;3.40;99.90;;;;;;5097274;28;20036;-71
2023/01/18 10:33:37;;;;;;;11.52;6.60;;;3.50;99.90;;;;;;5097821;28;20494;-70
2023/01/18 10:36:18;;;;;;;10.60;5.60;;;3.70;99.90;;;;;;5115574;28;20103;-69
2023/01/18 10:38:45;;;;;;;11.80;5.85;;;3.90;99.90;;;;;;5118377;28;20044;-70
2023/01/18 10:41:24;;;;;;;8.85;6.07;;;4.10;99.90;;;;;;5116451;28;20046;-69
2023/01/18 10:43:50;;;;;;;11.20;5.72;;;4.40;99.90;;;;;;5116921;28;20329;-70
2023/01/18 10:46:18;;;;;;;11.05;5.80;;;4.50;99.90;;;;;;5116062;28;20042;-70
2023/01/18 10:48:49;;;;;;;10.23;5.60;;;4.60;99.90;;;;;;5118168;28;20107;-70
2023/01/18 10:51:25;;;;;;;10.88;6.13;;;4.40;99.90;;;;;;5117900;28;20039;-70
2023/01/18 10:53:51;;;;;;;8.57;5.25;;;4.50;99.90;;;;;;5118060;28;20043;-70
2023/01/18 10:56:20;;;;;;;12.60;5.35;;;4.70;99.90;;;;;;5118050;28;20050;-70
2023/01/18 10:59:01;;;;;;;9.75;5.68;;;4.80;99.90;;;;;;5105575;28;20047;-70
2023/01/18 11:01:32;;;;;;;14.02;6.13;;;5.10;99.90;;;;;;5103260;28;20320;-69
2023/01/18 11:04:06;;;;;;;9.20;5.50;;;4.90;99.90;;;;;;5101579;28;20031;-74
2023/01/18 11:06:56;;;;;;;13.50;5.30;;;5.00;99.90;;;;;;5117106;28;20310;-69
2023/01/18 11:09:43;;;;;;;9.32;5.47;;;4.90;99.90;;;;;;5116996;28;20076;-70
2023/01/18 11:12:32;;;;;;;;;;;5.00;99.90;;;;;;5117512;28;20046;-70
2023/01/18 11:15:15;;;;;;;13.40;5.32;;;4.90;99.90;;;;;;5117793;28;20022;-70
2023/01/18 11:17:59;;;;;;;9.35;4.95;;;4.90;99.90;;;;;;5117322;28;20036;-70
2023/01/18 11:20:44;;;;;;;9.73;5.10;;;5.00;99.90;;;;;;5117506;27;20047;-70
2023/01/18 11:23:13;;;;;;;10.15;5.07;;;5.10;99.90;;;;;;5117180;28;20163;-69
2023/01/18 11:25:41;;;;;;;10.50;5.30;;;5.30;99.90;;;;;;5107622;28;20074;-74
2023/01/18 11:28:38;;;;;;;12.38;5.07;;;5.10;99.90;;;;;;5096863;28;20535;-70
2023/01/18 11:31:16;;;;;;;9.23;5.40;;;5.10;99.90;;;;;;5115285;28;20085;-70
2023/01/18 11:33:57;;;;;;;8.05;4.90;;;5.10;99.90;;;;;;5118004;27;20043;-72
2023/01/18 11:36:34;;;;;;;9.18;4.60;;;5.10;99.90;;;;;;5117129;28;20047;-71
2023/01/18 11:39:21;;;;;;;9.70;4.80;;;5.30;99.90;;;;;;5116467;28;20040;-72
2023/01/18 11:41:48;;;;;;;8.13;4.10;;;5.40;99.90;;;;;;5096713;28;20043;-72
2023/01/18 11:44:31;;;;;;;8.25;4.72;;;5.80;99.90;;;;;;5112600;28;20040;-70
2023/01/18 11:47:02;;;;;;;7.18;4.57;;;5.80;99.90;;;;;;5106617;28;20046;-69
2023/01/18 11:49:36;;;;;;;8.52;4.15;;;6.10;99.90;;;;;;5112042;28;20498;-70
2023/01/18 11:52:11;;;;;;;10.40;5.47;;;5.90;99.40;;;;;;5096655;28;20035;-71
2023/01/18 11:54:47;;;;;;;12.20;4.00;;;6.00;99.90;;;;;;5108476;28;20115;-71
2023/01/18 11:57:15;;;;;;;9.80;4.45;;;6.30;99.50;;;;;;5096708;28;20054;-71
2023/01/18 11:59:44;;;;;;;7.72;3.88;;;6.70;99.50;;;;;;5096142;28;20031;-75
2023/01/18 12:02:55;;;;;;;10.38;4.40;;;7.00;99.40;;;;;;5100271;28;20073;-71
2023/01/18 12:05:46;;;;;;;8.30;4.00;;;7.20;99.10;;;;;;5114733;28;20086;-71
2023/01/18 12:08:39;;;;;;;9.00;4.20;;;6.90;98.90;;;;;;5118351;28;20036;-70
2023/01/18 12:11:40;;;;;;;8.40;4.43;;;6.60;99.20;;;;;;5107208;28;20046;-70
2023/01/18 12:14:18;;;;;;;7.70;3.75;;;6.80;99.60;;;;;;5118200;28;20126;-71
2023/01/18 12:17:15;;;;;;;6.15;3.05;;;7.10;99.00;;;;;;5101237;28;20341;-72
2023/01/18 12:20:11;;;;;;;7.32;3.53;;;7.30;98.80;;;;;;5083528;28;20119;-73
2023/01/18 12:22:52;;;;;;;9.63;3.75;;;7.70;98.50;;;;;;5098905;28;20123;-76
2023/01/18 12:25:40;;;;;;;12.75;4.10;;;7.90;98.40;;;;;;5117754;28;20044;-74
2023/01/18 12:28:16;;;;;;;8.32;4.20;;;8.10;98.90;;;;;;5112668;28;20036;-74
2023/01/18 12:31:04;;;;;;;8.77;4.25;;;7.70;98.90;;;;;;5120704;28;20412;-71
2023/01/18 12:33:50;;;;;;;6.82;3.70;;;7.50;98.90;;;;;;5118725;28;20336;-71
2023/01/18 12:36:35;;;;;;;8.80;3.83;;;7.20;98.50;;;;;;5120872;28;20035;-70
2023/01/18 12:39:16;;;;;;;8.82;3.70;;;7.10;98.80;;;;;;5120844;28;20413;-72
2023/01/18 12:41:56;;;;;;;10.35;3.55;;;7.10;98.70;;;;;;5120754;27;20106;-72
2023/01/18 12:44:46;;;;;;;13.25;4.32;;;7.40;98.80;;;;;;5120604;28;20044;-73
2023/01/18 12:47:33;;;;;;;6.82;3.15;;;7.70;98.20;;;;;;5120302;28;20324;-72
2023/01/18 12:50:20;;;;;;;9.52;3.67;;;8.30;98.20;;;;;;5120338;28;20042;-72
2023/01/18 12:52:52;;;;;;;7.88;3.20;;;8.70;97.80;;;;;;5119952;28;20047;-73
2023/01/18 12:55:21;;;;;;;10.90;3.63;;;9.10;97.40;;;;;;5120538;28;20062;-73
2023/01/18 12:57:57;;;;;;;17.08;3.72;;;9.10;97.20;;;;;;5120440;28;20310;-72
2023/01/18 13:00:30;;;;;;;7.05;3.30;;;8.90;97.20;;;;;;5120471;28;20110;-72
2023/01/18 13:02:56;;;;;;;6.85;3.53;;;9.40;97.20;;;;;;5120349;28;20114;-73
2023/01/18 13:05:53;;;;;;;7.30;3.20;;;9.80;96.70;;;;;;5120234;28;20035;-72
2023/01/18 13:08:41;;;;;;;6.45;3.08;;;10.10;96.90;;;;;;5118434;28;20043;-73
2023/01/18 13:11:20;;;;;;;11.48;3.63;;;10.50;96.30;;;;;;5107397;28;20430;-72
2023/01/18 13:13:48;;;;;;;8.20;3.50;;;10.80;96.10;;;;;;5105655;28;20027;-72
2023/01/18 13:16:30;;;;;;;9.52;3.35;;;10.30;96.20;;;;;;5099861;28;20047;-70
2023/01/18 13:19:02;;;;;;;8.43;3.28;;;9.80;96.40;;;;;;5096908;28;20040;-77
2023/01/18 13:21:49;;;;;;;8.60;3.40;;;9.30;96.50;;;;;;5107676;27;20080;-71
2023/01/18 13:24:24;;;;;;;7.60;3.63;;;8.30;96.80;;;;;;5119081;28;20051;-70
2023/01/18 13:26:52;;;;;;;6.88;3.75;;;7.80;97.50;;;;;;5119287;28;20073;-70
2023/01/18 13:29:28;;;;;;;8.55;3.22;;;7.30;98.10;;;;;;5098789;28;20438;-70
2023/01/18 13:31:55;;;;;;;8.75;3.08;;;7.00;98.00;;;;;;5102474;27;20321;-70
2023/01/18 13:34:37;;;;;;;7.22;3.20;;;6.70;98.40;;;;;;5114592;28;20042;-70
2023/01/18 13:37:05;;;;;;;6.15;3.20;;;6.60;98.70;;;;;;5119418;28;20044;-70
2023/01/18 13:39:42;;;;;;;7.05;3.72;;;6.50;98.90;;;;;;5118788;27;20071;-70
2023/01/18 13:42:10;;;;;;;8.40;3.72;;;6.60;99.00;;;;;;5119328;28;20036;-70
2023/01/18 13:44:46;;;;;;;9.30;3.60;;;6.80;99.10;;;;;;5119239;28;20040;-70
2023/01/18 13:47:34;;;;;;;7.50;3.63;;;6.90;99.00;;;;;;5118662;28;20027;-71